createdAt,value
2018-07-07T00:00:19.097Z,4.15
2018-07-07T00:02:47.257Z,1.95
2018-07-07T00:05:15.425Z,1.55
2018-07-07T00:07:43.586Z,4.35
2018-07-07T00:10:12.723Z,2.58
2018-07-07T00:12:41.497Z,3.62
2018-07-07T00:15:16.645Z,4.42
2018-07-07T00:17:45.215Z,4.30
2018-07-07T00:20:13.443Z,3.72
2018-07-07T00:22:41.618Z,4.97
2018-07-07T00:25:14.666Z,3.65
2018-07-07T00:27:43.345Z,4.85
2018-07-07T00:30:11.543Z,3.87
2018-07-07T00:32:39.786Z,2.67
2018-07-07T00:35:08.014Z,2.72
2018-07-07T00:37:36.217Z,3.62
2018-07-07T00:40:04.800Z,4.00
2018-07-07T00:42:32.965Z,3.25
2018-07-07T00:45:01.130Z,4.67
2018-07-07T00:47:29.297Z,2.75
2018-07-07T00:49:57.451Z,3.90
2018-07-07T00:52:25.605Z,4.20
2018-07-07T00:54:53.764Z,4.20
2018-07-07T00:57:21.932Z,3.22
2018-07-07T00:59:50.230Z,2.60
2018-07-07T01:02:21.361Z,3.08
2018-07-07T01:04:51.077Z,2.47
2018-07-07T01:07:19.321Z,4.22
2018-07-07T01:09:47.576Z,5.85
2018-07-07T01:12:15.723Z,3.60
2018-07-07T01:14:43.873Z,5.25
2018-07-07T01:17:12.054Z,4.12
2018-07-07T01:19:40.375Z,3.27
2018-07-07T01:22:10.025Z,4.97
2018-07-07T01:24:38.404Z,5.47
2018-07-07T01:27:06.894Z,3.62
2018-07-07T01:29:35.052Z,3.20
2018-07-07T01:32:03.213Z,5.58
2018-07-07T01:34:31.352Z,6.12
2018-07-07T01:36:59.504Z,5.30
2018-07-07T01:39:27.654Z,3.92
2018-07-07T01:41:55.802Z,4.42
2018-07-07T01:44:23.965Z,4.92
2018-07-07T01:46:52.132Z,6.80
2018-07-07T01:49:20.286Z,6.47
2018-07-07T01:51:48.458Z,6.25
2018-07-07T01:54:16.611Z,6.50
2018-07-07T01:56:44.778Z,5.08
2018-07-07T01:59:12.930Z,3.77
2018-07-07T02:01:41.197Z,5.50
2018-07-07T02:04:09.353Z,5.92
2018-07-07T02:06:37.508Z,4.50
2018-07-07T02:09:05.692Z,5.30
2018-07-07T02:11:33.917Z,5.05
2018-07-07T02:14:02.090Z,6.05
2018-07-07T02:16:30.233Z,6.85
2018-07-07T02:18:58.390Z,5.37
2018-07-07T02:21:26.537Z,7.22
2018-07-07T02:23:54.730Z,3.65
2018-07-07T02:26:22.905Z,5.47
2018-07-07T02:28:51.130Z,3.20
2018-07-07T02:31:19.276Z,5.55
2018-07-07T02:33:47.448Z,6.47
2018-07-07T02:36:15.601Z,3.85
2018-07-07T02:38:43.776Z,5.50
2018-07-07T02:41:11.921Z,3.55
2018-07-07T02:43:40.085Z,5.83
2018-07-07T02:46:08.264Z,6.35
2018-07-07T02:48:36.394Z,3.70
2018-07-07T02:51:04.553Z,4.45
2018-07-07T02:53:32.721Z,4.45
2018-07-07T02:56:00.882Z,5.30
2018-07-07T02:58:29.051Z,4.87
2018-07-07T03:00:57.196Z,5.92
2018-07-07T03:03:25.212Z,4.33
2018-07-07T03:05:53.332Z,9.03
2018-07-07T03:08:21.489Z,3.52
2018-07-07T03:10:49.678Z,7.08
2018-07-07T03:13:17.831Z,7.80
2018-07-07T03:15:45.997Z,6.55
2018-07-07T03:18:14.154Z,5.08
2018-07-07T03:20:42.309Z,3.15
2018-07-07T03:23:10.562Z,4.53
2018-07-07T03:25:38.763Z,6.97
2018-07-07T03:28:06.915Z,7.12
2018-07-07T03:30:35.069Z,7.25
2018-07-07T03:33:03.234Z,8.05
2018-07-07T03:35:31.390Z,6.67
2018-07-07T03:37:59.552Z,5.75
2018-07-07T03:40:27.805Z,6.17
2018-07-07T03:42:55.946Z,8.80
2018-07-07T03:45:24.109Z,6.40
2018-07-07T03:47:52.322Z,8.20
2018-07-07T03:50:20.483Z,10.93
2018-07-07T03:52:48.641Z,6.37
2018-07-07T03:55:16.804Z,4.17
2018-07-07T03:57:44.962Z,6.03
2018-07-07T04:00:13.120Z,4.70
2018-07-07T04:02:41.283Z,8.13
2018-07-07T04:05:09.445Z,7.05
2018-07-07T04:07:37.601Z,9.73
2018-07-07T04:10:05.753Z,6.50
2018-07-07T04:12:33.910Z,7.95
2018-07-07T04:15:02.134Z,11.00
2018-07-07T04:17:30.269Z,6.87
2018-07-07T04:19:58.476Z,8.30
2018-07-07T04:22:26.597Z,7.33
2018-07-07T04:24:54.753Z,7.28
2018-07-07T04:27:22.910Z,13.90
2018-07-07T04:29:51.082Z,10.13
2018-07-07T04:32:19.238Z,5.85
2018-07-07T04:34:47.417Z,6.42
2018-07-07T04:37:15.583Z,9.05
2018-07-07T04:39:43.826Z,8.88
2018-07-07T04:42:11.986Z,6.05
2018-07-07T04:44:40.132Z,9.55
2018-07-07T04:47:08.310Z,7.28
2018-07-07T04:49:36.461Z,8.55
2018-07-07T04:52:04.679Z,6.22
2018-07-07T04:54:32.820Z,8.83
2018-07-07T04:57:01.020Z,7.75
2018-07-07T04:59:29.173Z,8.03
2018-07-07T05:01:57.330Z,8.95
2018-07-07T05:04:25.506Z,8.65
2018-07-07T05:06:53.601Z,8.68
2018-07-07T05:09:21.818Z,14.30
2018-07-07T05:11:50.072Z,5.40
2018-07-07T05:14:18.209Z,5.85
2018-07-07T05:16:46.365Z,5.78
2018-07-07T05:19:14.605Z,8.03
2018-07-07T05:21:42.752Z,8.43
2018-07-07T05:24:10.902Z,8.15
2018-07-07T05:26:39.057Z,8.50
2018-07-07T05:29:07.198Z,5.55
2018-07-07T05:31:35.342Z,7.55
2018-07-07T05:34:03.488Z,10.55
2018-07-07T05:36:31.639Z,12.35
2018-07-07T05:38:59.779Z,6.10
2018-07-07T05:41:27.958Z,10.25
2018-07-07T05:43:56.103Z,10.45
2018-07-07T05:46:24.281Z,12.95
2018-07-07T05:48:52.429Z,8.38
2018-07-07T05:51:20.574Z,9.48
2018-07-07T05:53:48.750Z,5.83
2018-07-07T05:56:16.900Z,10.95
2018-07-07T05:58:45.057Z,7.58
2018-07-07T06:01:13.224Z,6.17
2018-07-07T06:03:41.388Z,8.78
2018-07-07T06:06:09.537Z,9.93
2018-07-07T06:08:37.689Z,13.95
2018-07-07T06:11:05.838Z,5.95
2018-07-07T06:13:34.001Z,8.33
2018-07-07T06:16:02.155Z,12.68
2018-07-07T06:18:30.315Z,11.70
2018-07-07T06:20:58.497Z,7.97
2018-07-07T06:23:26.658Z,17.55
2018-07-07T06:25:54.834Z,10.82
2018-07-07T06:28:23.004Z,9.08
2018-07-07T06:30:51.149Z,11.25
2018-07-07T06:33:19.309Z,10.28
2018-07-07T06:35:47.497Z,9.13
2018-07-07T06:38:15.669Z,6.40
2018-07-07T06:40:43.826Z,7.08
2018-07-07T06:43:11.982Z,7.80
2018-07-07T06:45:40.122Z,9.25
2018-07-07T06:48:08.281Z,7.90
2018-07-07T06:50:36.429Z,9.35
2018-07-07T06:53:04.869Z,8.28
2018-07-07T06:55:33.043Z,7.65
2018-07-07T06:58:01.251Z,12.40
2018-07-07T07:00:29.408Z,9.08
2018-07-07T07:02:57.553Z,7.17
2018-07-07T07:05:25.713Z,8.15
2018-07-07T07:07:53.888Z,6.30
2018-07-07T07:10:22.063Z,8.15
2018-07-07T07:12:50.229Z,7.08
2018-07-07T07:15:18.360Z,9.93
2018-07-07T07:17:46.509Z,4.97
2018-07-07T07:20:14.662Z,8.05
2018-07-07T07:22:42.855Z,6.70
2018-07-07T07:25:11.027Z,8.53
2018-07-07T07:27:39.169Z,7.25
2018-07-07T07:30:07.909Z,7.03
2018-07-07T07:32:35.831Z,7.08
2018-07-07T07:35:03.990Z,6.90
2018-07-07T07:37:32.133Z,4.95
2018-07-07T07:40:00.284Z,7.60
2018-07-07T07:42:28.441Z,6.33
2018-07-07T07:44:56.597Z,9.65
2018-07-07T07:47:25.014Z,8.40
2018-07-07T07:49:53.204Z,7.72
2018-07-07T07:52:21.356Z,21.82
2018-07-07T07:54:49.501Z,7.45
2018-07-07T07:57:17.649Z,9.23
2018-07-07T07:59:45.814Z,10.43
2018-07-07T08:02:13.964Z,8.88
2018-07-07T08:04:42.122Z,9.03
2018-07-07T08:07:10.285Z,4.75
2018-07-07T08:09:38.478Z,10.65
2018-07-07T08:12:06.633Z,8.68
2018-07-07T08:14:34.772Z,4.72
2018-07-07T08:17:03.013Z,6.87
2018-07-07T08:19:31.221Z,7.55
2018-07-07T08:21:59.434Z,5.40
2018-07-07T08:24:27.689Z,6.45
2018-07-07T08:26:55.889Z,6.03
2018-07-07T08:29:24.039Z,8.65
2018-07-07T08:31:52.309Z,10.40
2018-07-07T08:34:20.511Z,7.80
2018-07-07T08:36:48.642Z,9.10
2018-07-07T08:39:16.821Z,8.88
2018-07-07T08:41:45.017Z,4.50
2018-07-07T08:44:13.245Z,5.65
2018-07-07T08:46:41.432Z,6.97
2018-07-07T08:49:09.578Z,12.47
2018-07-07T08:51:37.741Z,7.42
2018-07-07T08:54:05.997Z,7.75
2018-07-07T08:56:34.157Z,5.47
2018-07-07T08:59:02.297Z,6.37
2018-07-07T09:01:30.459Z,5.37
2018-07-07T09:03:58.602Z,6.62
2018-07-07T09:06:26.770Z,4.95
2018-07-07T09:08:54.916Z,5.87
2018-07-07T09:11:23.104Z,4.00
2018-07-07T09:13:51.253Z,4.25
2018-07-07T09:16:19.441Z,4.72
2018-07-07T09:18:47.642Z,4.10
2018-07-07T09:21:15.804Z,4.60
2018-07-07T09:23:43.997Z,4.72
2018-07-07T09:26:12.165Z,3.42
2018-07-07T09:28:40.339Z,4.15
2018-07-07T09:31:08.881Z,3.47
2018-07-07T09:33:37.040Z,5.97
2018-07-07T09:36:05.193Z,3.45
2018-07-07T09:38:33.352Z,4.45
2018-07-07T09:41:01.566Z,2.98
2018-07-07T09:43:29.709Z,4.83
2018-07-07T09:45:57.717Z,3.20
2018-07-07T09:48:25.877Z,3.33
2018-07-07T09:50:54.018Z,5.55
2018-07-07T09:53:21.953Z,2.60
2018-07-07T09:55:50.109Z,8.78
2018-07-07T09:58:18.301Z,3.00
2018-07-07T10:00:46.445Z,5.62
2018-07-07T10:03:14.609Z,5.65
2018-07-07T10:05:42.754Z,7.25
2018-07-07T10:08:10.921Z,5.53
2018-07-07T10:10:39.066Z,6.83
2018-07-07T10:13:07.260Z,6.87
2018-07-07T10:15:35.845Z,5.22
2018-07-07T10:18:04.333Z,6.28
2018-07-07T10:20:32.486Z,3.87
2018-07-07T10:23:00.653Z,6.40
2018-07-07T10:25:28.893Z,4.75
2018-07-07T10:27:57.078Z,6.28
2018-07-07T10:30:25.221Z,5.70
2018-07-07T10:32:53.380Z,3.83
2018-07-07T10:35:21.315Z,4.33
2018-07-07T10:37:49.476Z,5.85
2018-07-07T10:40:17.627Z,4.85
2018-07-07T10:42:45.797Z,4.30
2018-07-07T10:45:13.958Z,7.30
2018-07-07T10:47:42.122Z,4.47
2018-07-07T10:50:10.311Z,5.00
2018-07-07T10:52:38.454Z,6.22
2018-07-07T10:55:06.622Z,7.28
2018-07-07T10:57:34.818Z,4.75
2018-07-07T11:00:03.022Z,5.47
2018-07-07T11:02:31.193Z,3.45
2018-07-07T11:04:59.326Z,5.33
2018-07-07T11:07:27.501Z,5.20
2018-07-07T11:09:55.614Z,4.90
2018-07-07T11:12:23.785Z,4.10
2018-07-07T11:14:51.952Z,7.00
2018-07-07T11:17:20.101Z,5.00
2018-07-07T11:19:48.279Z,3.02
2018-07-07T11:22:16.193Z,3.95
2018-07-07T11:24:44.378Z,6.42
2018-07-07T11:27:12.725Z,4.90
2018-07-07T11:29:40.967Z,3.42
2018-07-07T11:32:09.085Z,4.05
2018-07-07T11:34:37.254Z,3.08
2018-07-07T11:37:05.595Z,3.95
2018-07-07T11:39:33.744Z,4.35
2018-07-07T11:42:02.053Z,4.85
2018-07-07T11:44:30.241Z,4.65
2018-07-07T11:46:58.500Z,3.80
2018-07-07T11:49:26.657Z,3.15
2018-07-07T11:51:55.762Z,7.47
2018-07-07T11:54:24.476Z,4.15
2018-07-07T11:56:52.666Z,3.92
2018-07-07T11:59:20.852Z,6.75
2018-07-07T12:01:49.116Z,10.85
2018-07-07T12:04:17.301Z,11.95
2018-07-07T12:06:45.464Z,4.22
2018-07-07T12:09:13.618Z,4.28
2018-07-07T12:11:41.825Z,5.08
2018-07-07T12:14:09.994Z,7.40
2018-07-07T12:16:38.172Z,2.67
2018-07-07T12:19:06.384Z,5.25
2018-07-07T12:21:34.535Z,5.97
2018-07-07T12:24:02.965Z,8.78
2018-07-07T12:26:31.178Z,4.35
2018-07-07T12:28:59.323Z,4.67
2018-07-07T12:31:27.535Z,4.28
2018-07-07T12:33:55.628Z,4.97
2018-07-07T12:36:23.789Z,3.35
2018-07-07T12:38:51.946Z,4.62
2018-07-07T12:41:20.106Z,4.95
2018-07-07T12:43:48.295Z,3.87
2018-07-07T12:46:16.482Z,3.87
2018-07-07T12:48:44.641Z,4.15
2018-07-07T12:51:12.797Z,3.17
2018-07-07T12:53:40.958Z,3.15
2018-07-07T12:56:09.205Z,6.72
2018-07-07T12:58:37.357Z,3.50
2018-07-07T13:01:05.525Z,4.65
2018-07-07T13:03:33.666Z,4.83
2018-07-07T13:06:01.820Z,4.42
2018-07-07T13:08:29.993Z,3.15
2018-07-07T13:10:58.150Z,3.75
2018-07-07T13:13:26.501Z,4.62
2018-07-07T13:15:54.674Z,2.47
2018-07-07T13:18:22.830Z,2.83
2018-07-07T13:20:51.193Z,2.22
2018-07-07T13:23:19.431Z,5.45
2018-07-07T13:25:47.613Z,3.02
2018-07-07T13:28:15.770Z,2.85
2018-07-07T13:30:43.934Z,3.70
2018-07-07T13:33:12.177Z,3.10
2018-07-07T13:35:41.064Z,4.65
2018-07-07T13:38:09.212Z,4.37
2018-07-07T13:40:37.390Z,2.45
2018-07-07T13:43:05.682Z,3.83
2018-07-07T13:45:33.843Z,3.50
2018-07-07T13:48:01.989Z,3.95
2018-07-07T13:50:30.189Z,2.85
2018-07-07T13:52:58.415Z,3.22
2018-07-07T13:55:26.624Z,3.87
2018-07-07T13:57:54.778Z,3.17
2018-07-07T14:00:22.786Z,4.12
2018-07-07T14:02:50.944Z,4.85
2018-07-07T14:05:19.085Z,4.97
2018-07-07T14:07:47.254Z,4.90
2018-07-07T14:10:15.402Z,3.65
2018-07-07T14:12:43.576Z,4.87
2018-07-07T14:15:12.229Z,3.15
2018-07-07T14:17:40.394Z,5.40
2018-07-07T14:20:08.577Z,3.12
2018-07-07T14:22:36.729Z,2.62
2018-07-07T14:25:04.884Z,5.92
2018-07-07T14:27:33.081Z,5.47
2018-07-07T14:30:01.227Z,4.28
2018-07-07T14:32:29.451Z,4.50
2018-07-07T14:34:57.592Z,2.92
2018-07-07T14:37:25.848Z,3.80
2018-07-07T14:39:58.105Z,5.53
2018-07-07T14:42:51.889Z,3.00
2018-07-07T14:45:22.832Z,3.75
2018-07-07T14:47:52.021Z,5.17
2018-07-07T14:50:20.499Z,2.35
2018-07-07T14:52:48.753Z,2.55
2018-07-07T14:55:18.931Z,3.02
2018-07-07T14:57:47.324Z,2.30
2018-07-07T15:00:17.228Z,4.20
2018-07-07T15:02:46.292Z,4.80
2018-07-07T15:05:14.216Z,2.35
2018-07-07T15:07:42.391Z,5.03
2018-07-07T15:10:11.428Z,2.40
2018-07-07T15:12:39.594Z,2.92
2018-07-07T15:15:07.749Z,3.92
2018-07-07T15:17:35.902Z,4.90
2018-07-07T15:20:04.397Z,2.55
2018-07-07T15:22:32.589Z,3.02
2018-07-07T15:25:00.693Z,3.87
2018-07-07T15:27:28.866Z,2.27
2018-07-07T15:29:57.035Z,3.58
2018-07-07T15:32:24.953Z,1.95
2018-07-07T15:34:53.117Z,2.70
2018-07-07T15:37:21.286Z,3.58
2018-07-07T15:39:49.458Z,5.00
2018-07-07T15:42:17.662Z,3.33
2018-07-07T15:44:45.816Z,1.95
2018-07-07T15:47:13.962Z,5.83
2018-07-07T15:49:42.302Z,3.98
2018-07-07T15:52:10.446Z,3.70
2018-07-07T15:54:38.614Z,3.37
2018-07-07T15:57:06.831Z,3.22
2018-07-07T15:59:34.953Z,3.98
2018-07-07T16:02:03.150Z,7.00
2018-07-07T16:04:31.321Z,4.40
2018-07-07T16:06:59.469Z,4.03
2018-07-07T16:09:27.653Z,2.80
2018-07-07T16:11:55.831Z,2.95
2018-07-07T16:14:24.006Z,4.28
2018-07-07T16:16:52.177Z,3.92
2018-07-07T16:19:20.397Z,2.42
2018-07-07T16:21:48.608Z,4.33
2018-07-07T16:24:16.790Z,4.03
2018-07-07T16:26:44.946Z,5.70
2018-07-07T16:29:13.101Z,4.28
2018-07-07T16:31:41.310Z,8.83
2018-07-07T16:34:09.468Z,10.70
2018-07-07T16:36:37.621Z,14.03
2018-07-07T16:39:05.856Z,25.00
2018-07-07T16:41:34.333Z,18.57
2018-07-07T16:44:02.861Z,81.40
2018-07-07T16:46:32.228Z,39.60
2018-07-07T16:49:01.061Z,79.50
2018-07-07T16:51:29.241Z,67.03
2018-07-07T16:53:57.408Z,108.27
2018-07-07T16:56:25.592Z,72.92
2018-07-07T16:58:53.737Z,67.65
2018-07-07T17:01:21.993Z,68.05
2018-07-07T17:03:50.148Z,57.88
2018-07-07T17:06:18.314Z,19.32
2018-07-07T17:08:46.461Z,14.18
2018-07-07T17:11:14.625Z,22.32
2018-07-07T17:13:42.804Z,15.98
2018-07-07T17:16:10.981Z,22.45
2018-07-07T17:18:39.175Z,23.83
2018-07-07T17:21:07.344Z,23.18
2018-07-07T17:23:35.640Z,10.78
2018-07-07T17:26:04.138Z,19.30
2018-07-07T17:28:32.285Z,5.08
2018-07-07T17:31:01.649Z,10.45
2018-07-07T17:33:29.917Z,10.80
2018-07-07T17:35:58.307Z,5.92
2018-07-07T17:38:26.777Z,10.10
2018-07-07T17:40:55.201Z,6.60
2018-07-07T17:43:23.455Z,4.22
2018-07-07T17:45:52.520Z,8.50
2018-07-07T17:48:20.706Z,24.57
2018-07-07T17:50:48.853Z,11.53
2018-07-07T17:53:16.837Z,4.08
2018-07-07T17:55:45.019Z,3.77
2018-07-07T17:58:13.465Z,5.03
2018-07-07T18:00:42.170Z,6.75
2018-07-07T18:03:10.381Z,4.00
2018-07-07T18:05:38.552Z,2.92
2018-07-07T18:08:06.838Z,2.70
2018-07-07T18:10:35.082Z,6.12
2018-07-07T18:13:03.406Z,3.75
2018-07-07T18:15:31.595Z,2.17
2018-07-07T18:17:59.777Z,3.17
2018-07-07T18:20:28.134Z,5.37
2018-07-07T18:22:56.614Z,5.47
2018-07-07T18:25:24.800Z,4.28
2018-07-07T18:27:52.985Z,6.20
2018-07-07T18:30:21.186Z,6.72
2018-07-07T18:32:49.382Z,3.02
2018-07-07T18:35:17.561Z,5.85
2018-07-07T18:37:46.745Z,3.50
2018-07-07T18:40:15.061Z,3.55
2018-07-07T18:42:43.242Z,5.40
2018-07-07T18:45:12.253Z,3.90
2018-07-07T18:47:40.819Z,2.62
2018-07-07T18:50:09.078Z,6.85
2018-07-07T18:52:39.638Z,4.17
2018-07-07T18:55:08.130Z,3.47
2018-07-07T18:57:40.283Z,2.33
2018-07-07T19:00:08.886Z,4.47
2018-07-07T19:02:36.836Z,4.17
2018-07-07T19:05:05.173Z,3.20
2018-07-07T19:07:33.509Z,6.15
2018-07-07T19:10:02.000Z,2.77
2018-07-07T19:12:31.024Z,1.98
2018-07-07T19:15:04.654Z,5.70
2018-07-07T19:17:32.910Z,5.55
2018-07-07T19:20:01.102Z,5.60
2018-07-07T19:22:34.987Z,5.05
2018-07-07T19:25:08.783Z,3.50
2018-07-07T19:27:37.046Z,4.97
2018-07-07T19:30:05.237Z,5.85
2018-07-07T19:32:38.783Z,3.50
2018-07-07T19:35:12.529Z,6.62
2018-07-07T19:37:40.904Z,4.00
2018-07-07T19:40:09.137Z,3.80
2018-07-07T19:42:37.317Z,3.17
2018-07-07T19:45:05.754Z,5.53
2018-07-07T19:47:33.910Z,3.65
2018-07-07T19:50:02.118Z,1.67
2018-07-07T19:52:30.307Z,3.02
2018-07-07T19:54:58.494Z,3.77
2018-07-07T19:57:26.658Z,3.37
2018-07-07T19:59:54.822Z,3.62
2018-07-07T20:02:23.018Z,4.35
2018-07-07T20:04:51.174Z,6.53
2018-07-07T20:07:19.388Z,5.55
2018-07-07T20:09:47.542Z,6.45
2018-07-07T20:12:15.487Z,7.10
2018-07-07T20:14:43.714Z,3.42
2018-07-07T20:17:14.078Z,4.05
2018-07-07T20:20:59.372Z,6.30
2018-07-07T20:23:28.672Z,5.78
2018-07-07T20:26:01.551Z,4.33
2018-07-07T20:28:35.368Z,3.52
2018-07-07T20:31:03.593Z,3.65
2018-07-07T20:33:31.823Z,4.60
2018-07-07T20:35:59.971Z,3.00
2018-07-07T20:38:28.136Z,3.90
2018-07-07T20:40:56.333Z,4.15
2018-07-07T20:43:24.512Z,4.17
2018-07-07T20:45:52.704Z,4.55
2018-07-07T20:48:20.866Z,3.17
2018-07-07T20:50:49.057Z,5.22
2018-07-07T20:53:17.261Z,4.03
2018-07-07T20:55:45.565Z,2.08
2018-07-07T20:58:13.816Z,3.42
2018-07-07T21:00:41.977Z,4.28
2018-07-07T21:03:10.147Z,26.37
2018-07-07T21:05:38.324Z,48.78
2018-07-07T21:08:06.496Z,7.78
2018-07-07T21:10:34.677Z,4.85
2018-07-07T21:13:02.857Z,4.03
2018-07-07T21:15:31.070Z,5.05
2018-07-07T21:17:59.421Z,4.53
2018-07-07T21:20:27.462Z,3.75
2018-07-07T21:22:55.612Z,3.77
2018-07-07T21:25:23.777Z,4.53
2018-07-07T21:27:51.981Z,3.77
2018-07-07T21:30:20.151Z,4.83
2018-07-07T21:32:48.298Z,2.92
2018-07-07T21:35:16.469Z,7.92
2018-07-07T21:37:44.641Z,3.50
2018-07-07T21:40:13.038Z,2.70
2018-07-07T21:42:40.945Z,4.53
2018-07-07T21:45:09.114Z,5.05
2018-07-07T21:47:37.270Z,3.40
2018-07-07T21:50:05.465Z,4.67
2018-07-07T21:52:33.742Z,4.55
2018-07-07T21:55:01.882Z,6.05
2018-07-07T21:57:35.507Z,3.40
2018-07-07T22:00:03.729Z,4.97
2018-07-07T22:02:37.331Z,3.22
2018-07-07T22:05:10.998Z,5.42
2018-07-07T22:07:39.189Z,3.58
2018-07-07T22:10:07.461Z,6.28
2018-07-07T22:12:35.717Z,4.62
2018-07-07T22:15:03.885Z,6.65
2018-07-07T22:17:32.035Z,6.05
2018-07-07T22:20:00.184Z,5.15
2018-07-07T22:22:28.340Z,4.28
2018-07-07T22:24:56.501Z,6.67
2018-07-07T22:27:24.684Z,3.42
2018-07-07T22:29:52.834Z,3.12
2018-07-07T22:32:23.213Z,3.45
2018-07-07T22:34:51.581Z,4.87
2018-07-07T22:37:20.360Z,3.85
2018-07-07T22:39:49.278Z,5.10
2018-07-07T22:42:19.859Z,4.62
2018-07-07T22:44:49.001Z,8.08
2018-07-07T22:47:17.146Z,4.35
2018-07-07T22:49:45.289Z,6.58
2018-07-07T22:52:13.442Z,4.37
2018-07-07T22:54:41.613Z,4.70
2018-07-07T22:57:09.767Z,4.20
2018-07-07T22:59:37.914Z,3.58
2018-07-07T23:02:06.217Z,4.58
2018-07-07T23:04:34.364Z,5.17
2018-07-07T23:07:02.522Z,3.65
2018-07-07T23:09:30.676Z,6.75
2018-07-07T23:11:58.817Z,4.70
2018-07-07T23:14:26.969Z,5.25
2018-07-07T23:16:59.980Z,5.50
2018-07-07T23:19:28.130Z,4.53
2018-07-07T23:21:56.569Z,4.53
2018-07-07T23:24:24.769Z,8.88
2018-07-07T23:26:53.094Z,6.00
2018-07-07T23:29:21.250Z,5.50
2018-07-07T23:31:49.413Z,7.45
2018-07-07T23:34:17.569Z,4.65
2018-07-07T23:36:45.717Z,6.60
2018-07-07T23:39:13.982Z,5.35
2018-07-07T23:41:42.124Z,4.97
2018-07-07T23:44:10.273Z,5.17
2018-07-07T23:46:38.480Z,8.08
2018-07-07T23:49:06.626Z,4.55
2018-07-07T23:51:34.774Z,5.37
2018-07-07T23:54:02.952Z,3.90
2018-07-07T23:56:31.102Z,4.05
2018-07-07T23:58:59.265Z,5.37
